Time;durP1;ratioP1;P1;durP2;ratioP2;P2;SDS_P1;SDS_P2;PMS_P1;PMS_P2;Temp;Humidity;BMP_temperature;BMP_pressure;BME280_temperature;BME280_humidity;BME280_pressure;Samples;Min_cycle;Max_cycle;Signal;HPM_P1;HPM_P2
2023/05/21 00:01:33;;;;;;;4.10;3.60;;;14.80;99.90;;;;;;5003305;28;20053;-78
2023/05/21 00:03:59;;;;;;;5.70;3.33;;;14.80;99.90;;;;;;4987065;28;20038;-78
2023/05/21 00:06:25;;;;;;;6.32;3.30;;;14.70;99.90;;;;;;5009059;28;20499;-78
2023/05/21 00:08:50;;;;;;;6.05;3.33;;;14.70;99.90;;;;;;5011199;28;20041;-78
2023/05/21 00:11:16;;;;;;;4.13;3.42;;;14.70;99.90;;;;;;5001842;28;20042;-76
2023/05/21 00:13:41;;;;;;;7.35;3.45;;;14.70;99.90;;;;;;5008380;28;20060;-78
2023/05/21 00:16:09;;;;;;;4.47;3.00;;;14.70;99.90;;;;;;5010704;28;20220;-78
2023/05/21 00:18:38;;;;;;;6.03;3.53;;;14.70;99.90;;;;;;5006138;28;20048;-78
2023/05/21 00:21:04;;;;;;;5.65;3.38;;;14.70;99.90;;;;;;5018599;28;20038;-78
2023/05/21 00:23:31;;;;;;;5.38;3.47;;;14.70;99.90;;;;;;4993606;28;20539;-79
2023/05/21 00:25:57;;;;;;;5.20;3.30;;;14.70;99.90;;;;;;5004751;28;20049;-78
2023/05/21 00:28:23;;;;;;;5.53;3.15;;;14.70;99.90;;;;;;5005564;28;20050;-78
2023/05/21 00:30:48;;;;;;;5.95;3.47;;;14.70;99.90;;;;;;4994314;28;20044;-78
2023/05/21 00:33:14;;;;;;;4.18;2.95;;;14.70;99.90;;;;;;5001668;28;20064;-79
2023/05/21 00:35:40;;;;;;;4.75;3.42;;;14.70;99.90;;;;;;5003969;28;20038;-77
2023/05/21 00:38:06;;;;;;;5.30;3.42;;;14.70;99.90;;;;;;4993817;28;20065;-78
2023/05/21 00:40:32;;;;;;;6.65;3.40;;;14.70;99.90;;;;;;5005311;28;20038;-79
2023/05/21 00:42:57;;;;;;;5.65;3.17;;;14.70;99.90;;;;;;5007254;28;20034;-79
2023/05/21 00:45:24;;;;;;;4.95;3.53;;;14.60;99.90;;;;;;5011929;28;20111;-78
2023/05/21 00:47:53;;;;;;;6.70;3.55;;;14.60;99.90;;;;;;5006573;28;20064;-78
2023/05/21 00:50:20;;;;;;;5.68;3.45;;;14.60;99.90;;;;;;5009775;28;20089;-79
2023/05/21 00:52:45;;;;;;;6.75;3.22;;;14.60;99.90;;;;;;5015092;28;20081;-78
2023/05/21 00:55:11;;;;;;;6.47;3.63;;;14.60;99.90;;;;;;5013920;28;20045;-78
2023/05/21 00:57:38;;;;;;;5.80;3.58;;;14.60;99.90;;;;;;5007261;28;20084;-78
2023/05/21 01:00:07;;;;;;;6.40;3.35;;;14.60;99.90;;;;;;5005054;28;20064;-78
2023/05/21 01:02:35;;;;;;;4.18;3.25;;;14.60;99.90;;;;;;5024943;28;20080;-78
2023/05/21 01:05:03;;;;;;;5.22;3.58;;;14.60;99.90;;;;;;5008744;28;20168;-78
2023/05/21 01:07:28;;;;;;;6.13;3.70;;;14.50;99.90;;;;;;5009467;28;20493;-77
2023/05/21 01:09:54;;;;;;;5.90;3.67;;;14.60;99.90;;;;;;5012616;28;20091;-78
2023/05/21 01:12:22;;;;;;;6.35;3.67;;;14.50;99.90;;;;;;4994903;28;20104;-78
2023/05/21 01:14:48;;;;;;;5.03;3.53;;;14.50;99.90;;;;;;5025635;28;20417;-79
2023/05/21 01:17:14;;;;;;;5.15;3.40;;;14.50;99.90;;;;;;5012913;28;20034;-79
2023/05/21 01:19:43;;;;;;;7.03;3.60;;;14.50;99.90;;;;;;5014631;28;20033;-77
2023/05/21 01:22:11;;;;;;;6.10;3.35;;;14.50;99.90;;;;;;5007682;28;20612;-78
2023/05/21 01:24:37;;;;;;;7.45;3.65;;;14.50;99.90;;;;;;5024094;28;20041;-78
2023/05/21 01:27:05;;;;;;;5.22;3.55;;;14.40;99.90;;;;;;5011327;28;20448;-79
2023/05/21 01:29:31;;;;;;;6.65;3.72;;;14.50;99.90;;;;;;5011290;28;20056;-77
2023/05/21 01:32:20;;;;;;;6.03;3.60;;;14.50;99.90;;;;;;4996933;28;20033;-78
2023/05/21 01:34:59;;;;;;;5.32;3.75;;;14.50;99.90;;;;;;5005759;28;20037;-78
2023/05/21 01:38:00;;;;;;;7.78;3.50;;;14.40;99.90;;;;;;5011026;28;20049;-78
2023/05/21 01:40:34;;;;;;;4.88;3.50;;;14.40;99.90;;;;;;4993454;28;20140;-80
2023/05/21 01:43:02;;;;;;;4.70;3.75;;;14.40;99.90;;;;;;5018386;28;20041;-78
2023/05/21 01:45:30;;;;;;;7.22;3.70;;;14.40;99.90;;;;;;5008318;28;20045;-80
2023/05/21 01:47:56;;;;;;;6.18;3.80;;;14.40;99.90;;;;;;4989727;28;20042;-78
2023/05/21 01:50:26;;;;;;;6.20;3.85;;;14.30;99.90;;;;;;5006827;28;20121;-79
2023/05/21 01:52:53;;;;;;;7.03;3.90;;;14.30;99.90;;;;;;5010761;28;20052;-78
2023/05/21 01:55:23;;;;;;;4.93;3.85;;;14.30;99.90;;;;;;5008362;28;20030;-78
2023/05/21 01:57:53;;;;;;;6.43;3.83;;;14.30;99.90;;;;;;5006920;28;20046;-79
2023/05/21 02:00:23;;;;;;;5.50;4.05;;;14.30;99.90;;;;;;5012051;28;20168;-78
2023/05/21 02:02:50;;;;;;;5.25;3.78;;;14.30;99.90;;;;;;5006232;28;20049;-78
2023/05/21 02:05:16;;;;;;;6.82;4.20;;;14.30;99.90;;;;;;5014413;28;20049;-78
2023/05/21 02:07:42;;;;;;;6.05;4.20;;;14.20;99.90;;;;;;5009996;28;20063;-78
2023/05/21 02:10:08;;;;;;;7.28;4.50;;;14.20;99.90;;;;;;5012701;28;20527;-78
2023/05/21 02:12:34;;;;;;;5.32;4.28;;;14.20;99.90;;;;;;5012134;28;20406;-78
2023/05/21 02:15:01;;;;;;;6.15;4.18;;;14.20;99.90;;;;;;5001456;28;20037;-79
2023/05/21 02:17:29;;;;;;;7.15;4.30;;;14.10;99.90;;;;;;5010938;28;20053;-79
2023/05/21 02:19:55;;;;;;;7.22;4.50;;;14.10;99.90;;;;;;5004517;28;20064;-79
2023/05/21 02:22:21;;;;;;;6.50;4.45;;;14.00;99.90;;;;;;5012331;28;20091;-79
2023/05/21 02:24:46;;;;;;;6.05;4.30;;;14.00;99.90;;;;;;5009467;28;20524;-78
2023/05/21 02:27:12;;;;;;;6.22;4.50;;;14.00;99.90;;;;;;5008815;28;20056;-78
2023/05/21 02:29:38;;;;;;;5.20;4.32;;;13.90;99.90;;;;;;5008110;28;20042;-78
2023/05/21 02:32:04;;;;;;;6.88;4.72;;;13.90;99.90;;;;;;5011248;28;20038;-78
2023/05/21 02:34:31;;;;;;;6.63;4.70;;;13.90;99.90;;;;;;5003070;28;20452;-78
2023/05/21 02:36:57;;;;;;;7.40;4.35;;;13.90;99.90;;;;;;5002363;28;20044;-79
2023/05/21 02:39:23;;;;;;;6.38;4.53;;;13.90;99.90;;;;;;5003259;28;20060;-80
2023/05/21 02:41:48;;;;;;;6.90;4.50;;;14.00;99.90;;;;;;5025847;28;20038;-79
2023/05/21 02:44:14;;;;;;;6.80;4.85;;;14.00;99.90;;;;;;5021749;28;20033;-78
2023/05/21 02:46:40;;;;;;;7.50;4.50;;;14.00;99.90;;;;;;5025071;28;20037;-78
2023/05/21 02:49:05;;;;;;;7.50;4.70;;;14.00;99.90;;;;;;5021942;28;20094;-78
2023/05/21 02:51:31;;;;;;;6.15;4.80;;;14.00;99.90;;;;;;5021230;28;20045;-77
2023/05/21 02:53:56;;;;;;;7.35;4.47;;;14.00;99.90;;;;;;5020495;28;20042;-78
2023/05/21 02:56:22;;;;;;;6.53;4.78;;;14.00;99.90;;;;;;5016700;28;20037;-78
2023/05/21 02:58:47;;;;;;;9.23;4.43;;;14.00;99.90;;;;;;5024359;28;20370;-78
2023/05/21 03:01:13;;;;;;;7.60;4.57;;;14.00;99.90;;;;;;5024009;28;20033;-79
2023/05/21 03:03:39;;;;;;;7.00;4.88;;;14.00;99.90;;;;;;5025226;28;20064;-78
2023/05/21 03:06:05;;;;;;;7.55;4.75;;;13.90;99.90;;;;;;5008266;28;20049;-78
2023/05/21 03:08:31;;;;;;;5.80;4.20;;;13.90;99.90;;;;;;5022120;28;20405;-78
2023/05/21 03:10:56;;;;;;;7.18;4.40;;;13.90;99.90;;;;;;5027804;28;20136;-78
2023/05/21 03:13:22;;;;;;;6.57;4.20;;;13.90;99.90;;;;;;5021946;28;20033;-78
2023/05/21 03:15:47;;;;;;;9.63;4.88;;;13.90;99.90;;;;;;5025083;28;20030;-79
2023/05/21 03:18:13;;;;;;;7.05;4.70;;;13.90;99.90;;;;;;5028550;28;20517;-78
2023/05/21 03:20:42;;;;;;;7.30;4.65;;;13.90;99.90;;;;;;5020876;28;20043;-78
2023/05/21 03:23:08;;;;;;;6.82;4.95;;;13.80;99.90;;;;;;5023709;28;20090;-79
2023/05/21 03:25:35;;;;;;;8.02;4.68;;;13.80;99.90;;;;;;5006238;28;20049;-78
2023/05/21 03:28:01;;;;;;;12.30;5.45;;;13.80;99.90;;;;;;5028621;28;20064;-78
2023/05/21 03:30:26;;;;;;;9.80;5.00;;;13.80;99.90;;;;;;5028969;28;20041;-79
2023/05/21 03:32:52;;;;;;;8.40;5.50;;;13.80;99.90;;;;;;5022520;28;20092;-79
2023/05/21 03:35:17;;;;;;;9.82;5.55;;;13.80;99.90;;;;;;5021253;28;20030;-78
2023/05/21 03:37:43;;;;;;;9.23;5.22;;;13.70;99.90;;;;;;5021834;28;20574;-78
2023/05/21 03:40:09;;;;;;;7.50;5.50;;;13.70;99.90;;;;;;5025284;28;20033;-78
2023/05/21 03:42:35;;;;;;;8.63;5.20;;;13.70;99.90;;;;;;5030024;28;20160;-79
2023/05/21 03:45:00;;;;;;;9.60;5.32;;;13.70;99.90;;;;;;5029326;28;20119;-78
2023/05/21 03:47:26;;;;;;;10.00;5.43;;;13.70;99.90;;;;;;5020898;28;20498;-78
2023/05/21 03:49:51;;;;;;;7.82;4.95;;;13.70;99.90;;;;;;5021107;28;20040;-78
2023/05/21 03:52:17;;;;;;;9.98;4.97;;;13.70;99.90;;;;;;5018826;28;20128;-78
2023/05/21 03:54:43;;;;;;;10.23;6.05;;;13.70;99.90;;;;;;5019582;28;20060;-78
2023/05/21 03:57:08;;;;;;;9.30;5.28;;;13.70;99.90;;;;;;5026208;28;20045;-79
2023/05/21 03:59:34;;;;;;;8.70;4.75;;;13.60;99.90;;;;;;5017806;28;20353;-78
2023/05/21 04:01:59;;;;;;;8.90;5.57;;;13.60;99.90;;;;;;5017465;28;20041;-78
2023/05/21 04:04:26;;;;;;;10.55;5.25;;;13.60;99.90;;;;;;5022485;28;20120;-78
2023/05/21 04:06:53;;;;;;;8.43;4.93;;;13.60;99.90;;;;;;5001819;28;20074;-79
2023/05/21 04:09:20;;;;;;;9.38;5.10;;;13.60;99.90;;;;;;5025551;28;20047;-79
2023/05/21 04:11:46;;;;;;;7.68;5.18;;;13.60;99.90;;;;;;5023380;28;20466;-79
2023/05/21 04:14:12;;;;;;;7.45;4.78;;;13.60;99.90;;;;;;5028285;28;20050;-79
2023/05/21 04:16:37;;;;;;;8.15;5.18;;;13.60;99.90;;;;;;5031669;28;20112;-78
2023/05/21 04:19:03;;;;;;;8.82;4.60;;;13.60;99.90;;;;;;5030539;28;20039;-79
2023/05/21 04:21:30;;;;;;;6.97;4.70;;;13.60;99.90;;;;;;5032780;28;20037;-79
2023/05/21 04:23:56;;;;;;;7.53;4.60;;;13.60;99.90;;;;;;5031990;28;20146;-78
2023/05/21 04:26:22;;;;;;;9.63;4.72;;;13.70;99.90;;;;;;5030558;28;20167;-78
2023/05/21 04:28:49;;;;;;;6.97;3.88;;;13.70;99.90;;;;;;5021952;28;20047;-78
2023/05/21 04:31:14;;;;;;;7.13;4.68;;;13.70;99.90;;;;;;5023160;28;20095;-78
2023/05/21 04:33:44;;;;;;;8.07;4.50;;;13.70;99.90;;;;;;5021547;28;20053;-79
2023/05/21 04:36:10;;;;;;;7.63;4.68;;;13.70;99.90;;;;;;5026630;28;20034;-79
2023/05/21 04:38:36;;;;;;;7.63;4.53;;;13.70;99.90;;;;;;5027759;28;20040;-79
2023/05/21 04:41:05;;;;;;;6.93;4.47;;;13.80;99.90;;;;;;5033806;28;20033;-79
2023/05/21 04:43:31;;;;;;;9.73;4.35;;;13.80;99.90;;;;;;5032002;28;20598;-79
2023/05/21 04:45:56;;;;;;;8.02;4.43;;;13.80;99.90;;;;;;5024740;28;20041;-78
2023/05/21 04:48:28;;;;;;;9.82;4.60;;;13.90;99.90;;;;;;5022125;28;20049;-78
2023/05/21 04:50:54;;;;;;;7.60;4.40;;;13.80;99.90;;;;;;5025892;28;20059;-78
2023/05/21 04:53:21;;;;;;;7.60;4.10;;;13.90;99.90;;;;;;5022518;28;20072;-78
2023/05/21 04:55:47;;;;;;;8.93;4.13;;;13.90;99.90;;;;;;5029067;28;20053;-78
2023/05/21 04:58:13;;;;;;;8.93;5.10;;;13.90;99.90;;;;;;5022680;28;20038;-78
2023/05/21 05:00:40;;;;;;;11.95;4.43;;;14.00;99.90;;;;;;5024511;28;20033;-77
2023/05/21 05:03:06;;;;;;;10.25;4.28;;;14.00;99.90;;;;;;5029607;28;20045;-78
2023/05/21 05:05:32;;;;;;;10.57;4.18;;;14.00;99.90;;;;;;5026909;28;20037;-77
2023/05/21 05:07:57;;;;;;;8.95;3.95;;;14.00;99.90;;;;;;5028347;28;20155;-79
2023/05/21 05:10:23;;;;;;;9.23;4.00;;;14.10;99.90;;;;;;5030706;28;20413;-78
2023/05/21 05:12:48;;;;;;;6.45;3.88;;;14.10;99.90;;;;;;5030140;28;20037;-78
2023/05/21 05:15:14;;;;;;;6.03;4.00;;;14.10;99.90;;;;;;5024767;28;20064;-80
2023/05/21 05:17:40;;;;;;;8.43;3.90;;;14.10;99.90;;;;;;5029269;28;20119;-78
2023/05/21 05:20:07;;;;;;;6.25;4.18;;;14.10;99.90;;;;;;5028653;28;20076;-79
2023/05/21 05:22:32;;;;;;;7.53;4.18;;;14.20;99.90;;;;;;5027659;28;20461;-78
2023/05/21 05:24:58;;;;;;;9.20;4.00;;;14.20;99.90;;;;;;5027384;28;20164;-78
2023/05/21 05:27:23;;;;;;;6.50;3.67;;;14.30;99.90;;;;;;5029588;28;20034;-78
2023/05/21 05:29:49;;;;;;;7.05;3.95;;;14.40;99.90;;;;;;5032922;28;20085;-78
2023/05/21 05:32:14;;;;;;;8.38;4.65;;;14.50;99.90;;;;;;5033006;28;20041;-78
2023/05/21 05:34:41;;;;;;;7.85;4.38;;;14.60;99.90;;;;;;5029866;28;20044;-79
2023/05/21 05:37:07;;;;;;;6.93;3.88;;;14.60;99.90;;;;;;5014253;28;20508;-78
2023/05/21 05:39:32;;;;;;;5.75;3.55;;;14.80;99.90;;;;;;5028817;28;20037;-79
2023/05/21 05:41:58;;;;;;;6.05;3.60;;;14.90;99.90;;;;;;5026505;28;20041;-78
2023/05/21 05:44:23;;;;;;;6.10;3.53;;;15.00;99.90;;;;;;5023493;28;20063;-78
2023/05/21 05:46:49;;;;;;;6.32;3.58;;;15.20;99.90;;;;;;5021021;28;20120;-78
2023/05/21 05:49:14;;;;;;;8.93;3.55;;;15.20;99.90;;;;;;5024490;28;20128;-79
2023/05/21 05:51:40;;;;;;;5.38;3.30;;;15.30;99.90;;;;;;5023135;28;20081;-78
2023/05/21 05:54:05;;;;;;;6.22;3.90;;;15.30;99.90;;;;;;5019304;28;20050;-78
2023/05/21 05:56:31;;;;;;;5.88;3.25;;;15.30;99.90;;;;;;5020878;28;20072;-78
2023/05/21 05:58:58;;;;;;;6.53;3.40;;;15.30;99.90;;;;;;5022011;28;20563;-78
2023/05/21 06:01:24;;;;;;;7.22;3.60;;;15.30;99.90;;;;;;5027181;28;20038;-78
2023/05/21 06:03:50;;;;;;;8.85;3.80;;;15.30;99.90;;;;;;5014494;28;20049;-78
2023/05/21 06:06:16;;;;;;;6.82;3.33;;;15.30;99.90;;;;;;5032520;28;20730;-78
2023/05/21 06:08:42;;;;;;;7.35;4.00;;;15.30;99.90;;;;;;5032450;28;20037;-78
2023/05/21 06:11:08;;;;;;;7.07;3.55;;;15.30;99.90;;;;;;5032210;28;20083;-78
2023/05/21 06:13:34;;;;;;;6.35;3.15;;;15.30;99.90;;;;;;5032302;28;20048;-78
2023/05/21 06:15:59;;;;;;;7.60;3.42;;;15.30;99.90;;;;;;5032327;28;20041;-78
2023/05/21 06:18:25;;;;;;;6.65;3.33;;;15.40;99.90;;;;;;5032547;28;20033;-78
2023/05/21 06:20:51;;;;;;;6.25;3.30;;;15.40;99.90;;;;;;5031450;28;20040;-79
2023/05/21 06:23:16;;;;;;;6.32;3.15;;;15.40;99.90;;;;;;5031928;28;20067;-78
2023/05/21 06:25:42;;;;;;;8.05;3.88;;;15.50;99.90;;;;;;5032061;28;20384;-78
2023/05/21 06:28:08;;;;;;;12.82;4.00;;;15.50;99.90;;;;;;5032036;28;20033;-78
2023/05/21 06:30:33;;;;;;;6.22;3.58;;;15.50;99.90;;;;;;5031935;28;20498;-78
2023/05/21 06:32:59;;;;;;;7.03;3.75;;;15.60;99.90;;;;;;5032040;28;20045;-79
2023/05/21 06:35:24;;;;;;;6.47;3.30;;;15.70;99.90;;;;;;5031529;28;20042;-78
2023/05/21 06:37:50;;;;;;;6.65;3.65;;;15.60;99.90;;;;;;5013355;28;20044;-78
2023/05/21 06:40:15;;;;;;;5.93;3.72;;;15.60;99.90;;;;;;5031894;28;20044;-78
2023/05/21 06:42:41;;;;;;;5.20;3.70;;;15.60;99.90;;;;;;5031878;28;20052;-79
2023/05/21 06:45:07;;;;;;;8.20;4.05;;;15.70;99.90;;;;;;5031747;28;20041;-78
2023/05/21 06:47:32;;;;;;;7.05;3.30;;;15.80;99.90;;;;;;5031877;28;20073;-77
2023/05/21 06:49:58;;;;;;;4.75;3.17;;;15.80;99.90;;;;;;5031826;28;20037;-78
2023/05/21 06:52:25;;;;;;;5.13;3.70;;;15.90;99.90;;;;;;5031778;28;20037;-76
2023/05/21 06:54:51;;;;;;;5.45;3.40;;;16.00;99.90;;;;;;5030399;28;20521;-79
2023/05/21 06:57:16;;;;;;;7.10;3.70;;;16.10;99.90;;;;;;5031166;28;20040;-77
2023/05/21 06:59:42;;;;;;;6.32;3.50;;;16.10;99.90;;;;;;5013614;28;20050;-79
2023/05/21 07:02:07;;;;;;;5.85;3.70;;;16.10;99.90;;;;;;5031652;28;20060;-79
2023/05/21 07:04:34;;;;;;;8.65;3.80;;;16.20;99.90;;;;;;5031753;28;20091;-78
2023/05/21 07:07:00;;;;;;;7.25;4.00;;;16.20;99.90;;;;;;5031010;28;20041;-79
2023/05/21 07:09:25;;;;;;;8.02;3.85;;;16.40;99.90;;;;;;5030947;28;20120;-78
2023/05/21 07:11:52;;;;;;;7.60;4.03;;;16.40;99.90;;;;;;5030504;28;20125;-78
2023/05/21 07:14:17;;;;;;;8.10;3.83;;;16.50;99.90;;;;;;5031299;28;20095;-78
2023/05/21 07:16:43;;;;;;;7.00;4.13;;;16.50;99.90;;;;;;5031878;28;20649;-78
2023/05/21 07:19:09;;;;;;;7.10;3.55;;;16.50;99.90;;;;;;5031286;28;20033;-77
2023/05/21 07:21:34;;;;;;;8.52;4.00;;;16.50;99.90;;;;;;5031414;28;20121;-79
2023/05/21 07:24:00;;;;;;;7.78;4.10;;;16.50;99.90;;;;;;5031213;28;20045;-79
2023/05/21 07:26:25;;;;;;;6.03;3.83;;;16.60;99.90;;;;;;5029652;28;20125;-78
2023/05/21 07:28:51;;;;;;;6.22;4.07;;;16.60;99.90;;;;;;5031028;28;20049;-78
2023/05/21 07:31:16;;;;;;;7.57;4.43;;;16.70;99.90;;;;;;5029719;28;20038;-78
2023/05/21 07:33:42;;;;;;;7.25;4.40;;;16.70;99.90;;;;;;5031192;28;20042;-78
2023/05/21 07:36:07;;;;;;;6.18;4.15;;;16.80;99.90;;;;;;5031328;28;20116;-78
2023/05/21 07:38:33;;;;;;;6.93;3.90;;;16.90;99.90;;;;;;5030917;28;20033;-78
2023/05/21 07:40:59;;;;;;;6.65;3.75;;;17.00;99.90;;;;;;5031045;28;20064;-77
2023/05/21 07:43:25;;;;;;;6.63;3.42;;;17.10;99.90;;;;;;5030216;28;20049;-79
2023/05/21 07:45:50;;;;;;;7.32;3.90;;;17.10;99.90;;;;;;5030187;28;20567;-79
2023/05/21 07:48:17;;;;;;;5.70;3.80;;;17.10;99.90;;;;;;5033694;28;20405;-78
2023/05/21 07:50:43;;;;;;;8.07;3.90;;;17.20;99.90;;;;;;5035168;28;20037;-78
2023/05/21 07:53:09;;;;;;;7.15;3.95;;;17.30;99.90;;;;;;5035043;28;20041;-78
2023/05/21 07:55:35;;;;;;;6.45;3.45;;;17.40;99.90;;;;;;5035160;28;20064;-79
2023/05/21 07:58:00;;;;;;;8.35;3.45;;;17.50;99.90;;;;;;5033286;28;20037;-79
2023/05/21 08:00:26;;;;;;;9.40;3.85;;;17.60;99.90;;;;;;5034805;28;20033;-78
2023/05/21 08:02:52;;;;;;;6.63;3.60;;;17.60;99.90;;;;;;5033627;28;20033;-78
2023/05/21 08:05:17;;;;;;;8.13;3.60;;;17.90;99.90;;;;;;5035050;28;20551;-79
2023/05/21 08:07:43;;;;;;;4.80;3.15;;;17.70;99.90;;;;;;5034004;28;20103;-79
2023/05/21 08:10:09;;;;;;;7.60;3.22;;;17.80;99.90;;;;;;5033479;28;20426;-79
2023/05/21 08:12:34;;;;;;;8.07;3.53;;;17.80;99.90;;;;;;5033979;28;20129;-80
2023/05/21 08:15:00;;;;;;;5.25;3.50;;;17.80;99.90;;;;;;5034944;28;20453;-78
2023/05/21 08:17:27;;;;;;;7.25;3.53;;;17.90;99.90;;;;;;5034799;28;20041;-79
2023/05/21 08:19:53;;;;;;;7.82;3.83;;;17.90;99.90;;;;;;5034461;28;20045;-79
2023/05/21 08:22:18;;;;;;;9.80;3.33;;;17.90;99.90;;;;;;5035005;28;20123;-79
2023/05/21 08:24:44;;;;;;;5.30;3.15;;;18.00;99.90;;;;;;5034541;28;20116;-79
2023/05/21 08:27:09;;;;;;;7.07;3.97;;;18.00;99.90;;;;;;5016922;28;20541;-79
2023/05/21 08:29:35;;;;;;;6.95;3.53;;;18.10;99.90;;;;;;5034385;28;20044;-79
2023/05/21 08:32:00;;;;;;;7.95;3.25;;;18.20;99.90;;;;;;5034525;28;20126;-79
2023/05/21 08:34:26;;;;;;;6.53;3.20;;;18.20;99.90;;;;;;5034393;28;20077;-79
2023/05/21 08:36:52;;;;;;;5.90;3.08;;;18.40;99.90;;;;;;5034292;28;20464;-79
2023/05/21 08:39:18;;;;;;;5.72;3.35;;;18.30;99.90;;;;;;5033778;28;20048;-78
2023/05/21 08:41:48;;;;;;;7.13;3.55;;;18.40;99.90;;;;;;5034108;28;20493;-79
2023/05/21 08:44:14;;;;;;;6.57;3.25;;;18.50;99.90;;;;;;5034458;28;20049;-79
2023/05/21 08:46:44;;;;;;;6.68;3.33;;;18.30;99.90;;;;;;5016729;28;20041;-80
2023/05/21 08:49:12;;;;;;;6.50;3.38;;;18.20;99.90;;;;;;5034207;28;20045;-79
2023/05/21 08:51:38;;;;;;;7.03;3.47;;;18.20;99.90;;;;;;5034227;28;20112;-79
2023/05/21 08:54:04;;;;;;;7.85;4.10;;;18.40;99.90;;;;;;5034452;28;20124;-79
2023/05/21 08:56:30;;;;;;;8.18;3.63;;;18.50;99.90;;;;;;5034052;28;20114;-80
2023/05/21 08:58:57;;;;;;;4.90;3.63;;;18.60;99.90;;;;;;5033971;28;20033;-78
2023/05/21 09:01:25;;;;;;;5.20;3.58;;;18.70;99.90;;;;;;5034295;28;20113;-80
2023/05/21 09:03:52;;;;;;;7.20;3.35;;;18.80;99.90;;;;;;5034209;28;20121;-79
2023/05/21 09:06:18;;;;;;;6.13;3.65;;;18.90;99.90;;;;;;5034079;28;20088;-79
2023/05/21 09:08:46;;;;;;;7.38;3.60;;;19.00;99.90;;;;;;5034342;28;20080;-80
2023/05/21 09:11:12;;;;;;;6.40;3.35;;;19.10;99.90;;;;;;5034264;28;20046;-79
2023/05/21 09:13:39;;;;;;;6.53;3.70;;;19.10;99.90;;;;;;5034560;28;20452;-80
2023/05/21 09:16:06;;;;;;;6.03;3.97;;;19.00;99.90;;;;;;5034593;28;20041;-80
2023/05/21 09:18:31;;;;;;;6.13;3.40;;;19.10;99.90;;;;;;5034492;28;20098;-80
2023/05/21 09:20:58;;;;;;;9.90;4.05;;;19.20;99.90;;;;;;5032405;28;20511;-80
2023/05/21 09:23:27;;;;;;;5.22;3.70;;;19.00;99.90;;;;;;5033338;28;20532;-79
2023/05/21 09:25:52;;;;;;;7.07;3.65;;;19.00;99.90;;;;;;5034063;28;20053;-78
2023/05/21 09:28:18;;;;;;;10.30;4.18;;;19.00;99.90;;;;;;5033629;28;20045;-80
2023/05/21 09:30:45;;;;;;;7.57;3.75;;;19.10;99.90;;;;;;5033535;28;20044;-77
2023/05/21 09:33:11;;;;;;;7.75;3.70;;;19.10;99.90;;;;;;5033629;28;20120;-79
2023/05/21 09:35:43;;;;;;;5.90;3.45;;;19.20;99.90;;;;;;5032126;28;20116;-78
2023/05/21 09:38:08;;;;;;;6.30;3.58;;;19.30;99.90;;;;;;5032642;28;20428;-79
2023/05/21 09:40:34;;;;;;;7.03;4.20;;;19.40;99.90;;;;;;5032964;28;20029;-80
2023/05/21 09:43:00;;;;;;;7.38;3.65;;;19.50;99.90;;;;;;5033700;28;20052;-79
2023/05/21 09:45:28;;;;;;;5.95;3.22;;;19.60;99.90;;;;;;5033218;28;20053;-79
2023/05/21 09:47:55;;;;;;;5.97;3.55;;;19.60;99.90;;;;;;5032970;28;20042;-79
2023/05/21 09:50:22;;;;;;;5.15;3.75;;;19.60;99.90;;;;;;5032836;28;20045;-80
2023/05/21 09:52:51;;;;;;;5.05;3.55;;;19.60;99.90;;;;;;5032980;28;20148;-79
2023/05/21 09:55:17;;;;;;;7.63;3.90;;;19.60;99.90;;;;;;5032997;28;20041;-79
2023/05/21 09:57:44;;;;;;;7.53;3.22;;;19.70;99.90;;;;;;5032571;28;20033;-79
2023/05/21 10:00:27;;;;;;;4.90;3.42;;;19.80;99.90;;;;;;5032564;28;20409;-78
2023/05/21 10:03:08;;;;;;;6.15;3.47;;;19.80;99.90;;;;;;5033449;28;20370;-80
2023/05/21 10:05:33;;;;;;;7.55;3.95;;;20.00;99.90;;;;;;5032874;28;20037;-80
2023/05/21 10:08:01;;;;;;;6.05;3.53;;;20.10;99.90;;;;;;5032695;28;20085;-78
2023/05/21 10:10:28;;;;;;;6.05;3.17;;;20.10;99.90;;;;;;5031386;28;20068;-80
2023/05/21 10:12:57;;;;;;;6.15;3.47;;;20.00;99.90;;;;;;5031270;28;20090;-79
2023/05/21 10:15:24;;;;;;;7.25;3.90;;;19.90;99.90;;;;;;5033203;28;20044;-76
2023/05/21 10:17:51;;;;;;;6.53;3.70;;;20.00;99.90;;;;;;5014432;28;20052;-80
2023/05/21 10:20:17;;;;;;;5.72;3.53;;;20.10;99.90;;;;;;5033462;28;20037;-80
2023/05/21 10:22:43;;;;;;;6.72;3.25;;;20.20;99.90;;;;;;5034734;28;20050;-78
2023/05/21 10:25:11;;;;;;;7.93;3.40;;;20.00;99.90;;;;;;5033194;28;20045;-80
2023/05/21 10:27:38;;;;;;;5.55;3.13;;;20.10;99.90;;;;;;5034595;28;20428;-79
2023/05/21 10:30:05;;;;;;;5.88;3.30;;;20.10;99.90;;;;;;5032960;28;20409;-79
2023/05/21 10:32:31;;;;;;;6.50;3.33;;;20.30;99.90;;;;;;5032730;28;20041;-79
2023/05/21 10:34:56;;;;;;;5.75;3.40;;;20.30;99.90;;;;;;5015796;28;20056;-79
2023/05/21 10:37:23;;;;;;;5.38;2.90;;;20.20;99.90;;;;;;5033050;28;20499;-80
2023/05/21 10:39:51;;;;;;;4.72;3.08;;;20.30;99.90;;;;;;5032171;28;20390;-79
2023/05/21 10:42:44;;;;;;;5.15;3.20;;;20.30;99.90;;;;;;5015586;28;20048;-78
2023/05/21 10:45:22;;;;;;;6.53;3.08;;;20.50;99.90;;;;;;5016410;28;20095;-79
2023/05/21 10:48:03;;;;;;;5.90;3.22;;;20.60;99.90;;;;;;5033160;28;20492;-79
2023/05/21 10:51:00;;;;;;;6.60;3.08;;;20.70;99.90;;;;;;5032318;28;20071;-78
2023/05/21 10:54:07;;;;;;;6.18;2.92;;;20.70;99.90;;;;;;5032915;28;20473;-79
2023/05/21 10:57:01;;;;;;;4.47;2.83;;;20.70;99.90;;;;;;5013009;28;20041;-79
2023/05/21 10:59:41;;;;;;;4.47;2.95;;;20.50;99.90;;;;;;4979245;28;20121;-79
2023/05/21 11:02:10;;;;;;;7.38;2.80;;;20.40;99.90;;;;;;5030982;28;20046;-78
2023/05/21 11:04:38;;;;;;;7.05;3.38;;;20.50;99.90;;;;;;5031673;28;20045;-80
2023/05/21 11:07:04;;;;;;;6.47;3.03;;;20.60;99.90;;;;;;5031688;28;20084;-79
2023/05/21 11:09:30;;;;;;;8.38;3.20;;;20.60;99.90;;;;;;5031251;28;20073;-79
2023/05/21 11:11:57;;;;;;;7.07;3.65;;;20.70;99.90;;;;;;5031690;28;20033;-79
2023/05/21 11:14:38;;;;;;;5.32;3.30;;;20.60;99.90;;;;;;5031779;28;20060;-79
2023/05/21 11:17:14;;;;;;;6.50;3.20;;;20.80;99.90;;;;;;5031658;28;20049;-80
2023/05/21 11:19:41;;;;;;;5.57;3.25;;;21.00;99.90;;;;;;5031358;28;20112;-78
2023/05/21 11:22:27;;;;;;;7.28;3.47;;;21.00;99.90;;;;;;5031964;28;20532;-80
2023/05/21 11:24:54;;;;;;;8.40;4.28;;;20.90;99.90;;;;;;5031499;28;20045;-79
2023/05/21 11:27:32;;;;;;;5.60;3.60;;;20.90;99.90;;;;;;5013914;28;20147;-80
2023/05/21 11:29:58;;;;;;;8.02;3.80;;;21.10;99.90;;;;;;5031768;28;20052;-79
2023/05/21 11:32:23;;;;;;;8.00;4.10;;;21.10;99.90;;;;;;5031299;28;20075;-79
2023/05/21 11:34:49;;;;;;;7.85;3.80;;;21.20;99.90;;;;;;5031574;28;20578;-79
2023/05/21 11:37:25;;;;;;;8.90;4.40;;;21.40;99.90;;;;;;5031452;28;20037;-80
2023/05/21 11:39:51;;;;;;;11.20;4.57;;;21.60;99.90;;;;;;5031868;28;20041;-79
2023/05/21 11:42:32;;;;;;;7.07;4.35;;;21.60;99.90;;;;;;5031696;28;20056;-80
2023/05/21 11:44:59;;;;;;;5.45;4.00;;;21.50;99.90;;;;;;5031213;28;20041;-79
2023/05/21 11:47:26;;;;;;;6.85;4.72;;;21.60;99.90;;;;;;5030777;28;20045;-80
2023/05/21 11:49:52;;;;;;;8.93;4.55;;;21.60;99.90;;;;;;5030842;28;20045;-79
2023/05/21 11:52:20;;;;;;;8.93;4.50;;;21.50;99.90;;;;;;5031264;28;20041;-79
2023/05/21 11:54:49;;;;;;;6.03;4.35;;;21.30;99.90;;;;;;5031026;28;20040;-79
2023/05/21 11:57:17;;;;;;;7.03;4.50;;;21.40;99.90;;;;;;5030981;28;20496;-79
2023/05/21 11:59:43;;;;;;;7.70;4.85;;;21.50;99.90;;;;;;5030753;28;20033;-78
2023/05/21 12:02:16;;;;;;;10.13;5.60;;;21.60;99.90;;;;;;5031619;28;20073;-79
2023/05/21 12:04:44;;;;;;;9.68;5.28;;;21.70;99.90;;;;;;5031276;28;20038;-79
2023/05/21 12:07:12;;;;;;;7.78;4.63;;;21.80;99.90;;;;;;5031169;28;20041;-79
2023/05/21 12:09:49;;;;;;;9.70;4.85;;;22.10;99.90;;;;;;5031208;28;20041;-79
2023/05/21 12:12:17;;;;;;;8.52;5.13;;;22.40;99.90;;;;;;5030844;28;20497;-78
2023/05/21 12:14:45;;;;;;;10.07;6.30;;;22.60;99.90;;;;;;5031240;28;20578;-79
2023/05/21 12:17:14;;;;;;;8.43;5.85;;;22.50;99.90;;;;;;5030904;28;20101;-77
2023/05/21 12:19:40;;;;;;;9.43;6.60;;;22.80;99.90;;;;;;5030553;28;20079;-79
2023/05/21 12:22:06;;;;;;;10.02;6.20;;;23.00;99.90;;;;;;5030862;28;20518;-76
2023/05/21 12:24:33;;;;;;;10.73;6.13;;;23.20;99.90;;;;;;5030588;28;20069;-78
2023/05/21 12:27:00;;;;;;;12.00;7.38;;;23.40;99.90;;;;;;5030879;28;20084;-78
2023/05/21 12:29:30;;;;;;;10.30;6.60;;;23.50;99.90;;;;;;5030390;28;20071;-79
2023/05/21 12:32:00;;;;;;;7.32;6.22;;;23.60;99.90;;;;;;5012820;28;20049;-78
2023/05/21 12:34:45;;;;;;;10.05;7.72;;;23.70;99.90;;;;;;5033478;28;20042;-78
2023/05/21 12:37:15;;;;;;;9.57;6.80;;;23.90;99.90;;;;;;5034200;28;20046;-79
2023/05/21 12:39:46;;;;;;;13.63;8.07;;;23.80;99.90;;;;;;5034068;28;20034;-79
2023/05/21 12:42:12;;;;;;;12.13;7.30;;;23.60;99.90;;;;;;5034276;28;20046;-77
2023/05/21 12:44:42;;;;;;;10.00;7.68;;;23.80;99.90;;;;;;5034024;28;20493;-78
2023/05/21 12:47:08;;;;;;;11.13;7.20;;;23.90;99.90;;;;;;5033995;28;20038;-77